Time;durP1;ratioP1;P1;durP2;ratioP2;P2;SDS_P1;SDS_P2;PMS_P1;PMS_P2;Temp;Humidity;BMP_temperature;BMP_pressure;BME280_temperature;BME280_humidity;BME280_pressure;Samples;Min_cycle;Max_cycle;Signal;HPM_P1;HPM_P2
2021/12/25 00:01:00;;;;;;;1.80;1.00;;;;;;;-4.43;79.47;100375.44;7397232;19;20018;-68
2021/12/25 00:03:29;;;;;;;2.08;0.85;;;;;;;-4.45;77.89;100384.78;7396423;19;20483;-67
2021/12/25 00:05:58;;;;;;;2.22;0.98;;;;;;;-4.48;78.27;100388.91;7395261;19;20014;-67
2021/12/25 00:08:29;;;;;;;2.67;1.10;;;;;;;-4.53;75.73;100391.31;7396639;19;20011;-67
2021/12/25 00:10:58;;;;;;;1.40;0.90;;;;;;;-4.56;77.51;100390.34;7397025;19;20018;-67
2021/12/25 00:13:29;;;;;;;3.03;0.90;;;;;;;-4.58;78.10;100397.97;7394871;19;20036;-67
2021/12/25 00:15:58;;;;;;;3.60;0.80;;;;;;;-4.59;79.67;100409.03;7394659;19;20018;-67
2021/12/25 00:18:26;;;;;;;1.50;0.93;;;;;;;-4.59;80.00;100422.72;7394159;19;20058;-67
2021/12/25 00:20:54;;;;;;;2.42;1.02;;;;;;;-4.59;79.23;100426.94;7394562;19;20014;-66
2021/12/25 00:23:23;;;;;;;1.80;0.98;;;;;;;-4.58;79.81;100418.44;7394122;19;20479;-66
2021/12/25 00:25:56;;;;;;;1.10;1.00;;;;;;;-4.58;80.47;100429.56;7394394;19;20026;-67
2021/12/25 00:28:47;;;;;;;1.17;0.95;;;;;;;-4.56;80.23;100427.06;7396552;19;20078;-67
2021/12/25 00:31:30;;;;;;;2.50;1.08;;;;;;;-4.55;78.69;100427.94;7395551;19;20074;-67
2021/12/25 00:34:00;;;;;;;2.75;1.20;;;;;;;-4.54;81.00;100438.22;7395059;19;20018;-65
2021/12/25 00:36:28;;;;;;;1.45;0.80;;;;;;;-4.53;78.94;100439.97;7397122;19;20018;-65
2021/12/25 00:38:57;;;;;;;2.75;0.70;;;;;;;-4.51;80.20;100455.38;7391251;19;20349;-66
2021/12/25 00:41:26;;;;;;;1.88;1.05;;;;;;;-4.52;80.47;100451.94;7394010;19;20018;-66
2021/12/25 00:43:55;;;;;;;2.83;1.05;;;;;;;-4.51;81.23;100435.78;7395350;19;20479;-65
2021/12/25 00:46:25;;;;;;;2.70;1.00;;;;;;;-4.49;81.51;100444.38;7393844;19;20041;-66
2021/12/25 00:49:00;;;;;;;3.58;0.98;;;;;;;-4.46;80.22;100458.97;7393438;19;20377;-66
2021/12/25 00:51:28;;;;;;;1.98;0.70;;;;;;;-4.42;81.37;100450.59;7395305;19;20022;-66
2021/12/25 00:53:56;;;;;;;1.92;0.93;;;;;;;-4.42;80.90;100456.56;7394909;19;20385;-66
2021/12/25 00:56:25;;;;;;;3.80;1.45;;;;;;;-4.37;81.18;100477.22;7393558;19;20075;-66
2021/12/25 00:58:53;;;;;;;2.33;0.90;;;;;;;-4.36;81.50;100485.78;7393860;19;20015;-66
2021/12/25 01:01:21;;;;;;;2.92;1.05;;;;;;;-4.37;80.43;100472.09;7395453;19;20031;-65
2021/12/25 01:03:52;;;;;;;1.33;0.90;;;;;;;-4.36;81.02;100471.28;7395301;19;20018;-67
2021/12/25 01:06:20;;;;;;;2.72;0.80;;;;;;;-4.36;81.50;100471.28;7393231;19;20014;-66
2021/12/25 01:08:48;;;;;;;1.52;0.90;;;;;;;-4.33;81.69;100491.00;7395067;19;20014;-66
2021/12/25 01:11:17;;;;;;;7.75;1.40;;;;;;;-4.32;81.40;100490.16;7392850;19;20504;-66
2021/12/25 01:13:51;;;;;;;3.80;1.10;;;;;;;-4.34;80.44;100479.03;7394952;19;20014;-66
2021/12/25 01:16:33;;;;;;;1.35;1.15;;;;;;;-4.36;80.98;100478.09;7393109;19;20032;-66
2021/12/25 01:19:35;;;;;;;1.60;0.90;;;;;;;-4.40;81.20;100491.63;7393596;19;20015;-67
2021/12/25 01:22:42;;;;;;;2.13;0.90;;;;;;;-4.42;81.66;100494.13;7393279;19;20074;-66
2021/12/25 01:25:32;;;;;;;1.73;1.13;;;;;;;-4.45;82.23;100497.47;7393235;19;20134;-66
2021/12/25 01:28:42;;;;;;;1.65;0.95;;;;;;;-4.47;82.01;100493.09;7394546;19;20081;-66
2021/12/25 01:31:11;;;;;;;2.97;0.82;;;;;;;-4.51;82.52;100492.13;7393902;19;20101;-66
2021/12/25 01:36:45;;;;;;;1.58;1.00;;;;;;;-4.56;83.38;100493.63;7388924;19;20045;-66
2021/12/25 01:39:19;;;;;;;1.38;1.00;;;;;;;-4.60;82.87;100499.44;7391769;19;20390;-66
2021/12/25 01:50:03;;;;;;;1.80;1.10;;;;;;;-4.71;83.27;100501.63;7394453;19;20021;-66
2021/12/25 01:52:34;;;;;;;3.47;1.45;;;;;;;-4.73;83.77;100503.25;7398642;19;20015;-66
2021/12/25 01:55:05;;;;;;;0.95;0.90;;;;;;;-4.76;83.89;100514.25;7398755;19;20018;-66
2021/12/25 01:57:34;;;;;;;2.95;1.23;;;;;;;-4.77;83.96;100525.31;7400467;19;20483;-66
2021/12/25 02:00:03;;;;;;;2.47;1.00;;;;;;;-4.81;83.03;100527.72;7398382;19;20007;-66
2021/12/25 02:02:31;;;;;;;2.97;1.05;;;;;;;-4.85;83.60;100524.16;7401071;19;20017;-66
2021/12/25 02:05:00;;;;;;;1.50;0.85;;;;;;;-4.88;83.96;100536.84;7399530;19;20018;-66
2021/12/25 02:07:28;;;;;;;1.65;1.00;;;;;;;-4.91;84.05;100541.84;7400428;19;20475;-66
2021/12/25 02:09:59;;;;;;;1.45;0.88;;;;;;;-4.93;84.07;100544.34;7400790;19;20019;-66
2021/12/25 02:12:27;;;;;;;1.55;1.08;;;;;;;-4.94;84.29;100545.16;7401127;19;20018;-66
2021/12/25 02:15:00;;;;;;;2.83;0.98;;;;;;;-4.96;84.53;100549.34;7399878;19;20045;-66
2021/12/25 02:17:46;;;;;;;1.60;1.05;;;;;;;-4.98;84.68;100551.00;7398007;19;20077;-66
2021/12/25 02:20:24;;;;;;;4.65;1.30;;;;;;;-4.98;84.78;100547.53;7400922;19;20021;-67
2021/12/25 02:22:59;;;;;;;4.80;1.00;;;;;;;-5.00;85.00;100551.75;7400675;19;20019;-68
2021/12/25 02:25:55;;;;;;;1.42;1.00;;;;;;;-5.02;84.84;100545.69;7398343;19;20015;-67
2021/12/25 02:28:24;;;;;;;4.07;1.00;;;;;;;-5.04;84.47;100554.97;7400410;19;20031;-67
2021/12/25 02:30:55;;;;;;;1.85;1.40;;;;;;;-5.06;84.88;100557.47;7400020;19;20034;-67
2021/12/25 02:33:23;;;;;;;2.47;0.98;;;;;;;-5.07;85.17;100561.75;7397734;19;20027;-67
2021/12/25 02:35:54;;;;;;;3.72;1.00;;;;;;;-5.09;84.64;100557.38;7398019;19;20019;-64
2021/12/25 02:38:30;;;;;;;3.60;1.10;;;;;;;-5.16;84.65;100561.38;7397072;19;20010;-65
2021/12/25 02:40:58;;;;;;;2.47;1.00;;;;;;;-5.17;84.55;100562.16;7397368;19;20035;-65
2021/12/25 02:43:27;;;;;;;2.90;0.93;;;;;;;-5.22;85.09;100563.69;7399668;19;20028;-65
2021/12/25 02:45:55;;;;;;;1.55;1.20;;;;;;;-5.21;85.35;100570.53;7397204;19;20026;-65
2021/12/25 02:48:24;;;;;;;4.75;1.08;;;;;;;-5.21;85.41;100572.25;7397237;19;20018;-64
2021/12/25 02:50:55;;;;;;;1.00;0.85;;;;;;;-5.23;85.13;100582.41;7397048;19;20038;-65
2021/12/25 02:53:23;;;;;;;3.33;1.10;;;;;;;-5.27;85.45;100580.53;7397515;19;20072;-65
2021/12/25 02:55:52;;;;;;;2.70;1.08;;;;;;;-5.31;85.43;100588.91;7397437;19;20023;-65
2021/12/25 02:58:20;;;;;;;3.60;1.08;;;;;;;-5.35;85.43;100582.78;7397127;19;20019;-68
2021/12/25 03:00:52;;;;;;;3.25;1.20;;;;;;;-5.36;85.49;100587.84;7398726;19;20489;-64
2021/12/25 03:03:21;;;;;;;4.70;1.35;;;;;;;-5.37;85.74;100589.53;7394717;19;20501;-65
2021/12/25 03:05:51;;;;;;;1.50;1.02;;;;;;;-5.37;85.58;100593.75;7396679;19;20106;-67
2021/12/25 03:08:23;;;;;;;3.10;1.13;;;;;;;-5.40;85.49;100592.84;7398866;19;20417;-67
2021/12/25 03:10:53;;;;;;;2.10;1.13;;;;;;;-5.43;85.71;100589.28;7399192;19;20367;-67
2021/12/25 03:13:34;;;;;;;1.65;1.35;;;;;;;-5.48;85.42;100578.88;7396642;19;20011;-67
2021/12/25 03:16:04;;;;;;;1.30;0.93;;;;;;;-5.57;85.64;100579.38;7396495;19;20018;-67
2021/12/25 03:18:38;;;;;;;1.52;1.13;;;;;;;-5.53;85.98;100600.81;7397630;19;20015;-68
2021/12/25 03:21:08;;;;;;;1.52;1.10;;;;;;;-5.56;86.04;100600.69;7398871;19;20015;-67
2021/12/25 03:23:41;;;;;;;2.45;1.80;;;;;;;-5.54;86.08;100605.88;7396713;19;20028;-67
2021/12/25 03:26:10;;;;;;;1.40;1.23;;;;;;;-5.57;85.83;100598.97;7396982;19;20021;-68
2021/12/25 03:28:43;;;;;;;1.55;1.33;;;;;;;-5.60;86.19;100597.16;7398781;19;20030;-68
2021/12/25 03:31:16;;;;;;;1.27;1.17;;;;;;;-5.63;86.14;100597.00;7398238;19;20365;-68
2021/12/25 03:33:46;;;;;;;1.70;1.60;;;;;;;-5.68;86.36;100588.28;7397982;19;20383;-68
2021/12/25 03:36:14;;;;;;;1.30;1.10;;;;;;;-5.69;86.00;100601.84;7395772;19;20025;-68
2021/12/25 03:38:46;;;;;;;2.72;1.20;;;;;;;-5.72;85.89;100601.75;7396236;19;20019;-67
2021/12/25 03:41:16;;;;;;;1.88;1.20;;;;;;;-5.78;86.26;100593.81;7397752;19;20015;-68
2021/12/25 03:43:44;;;;;;;1.75;1.02;;;;;;;-5.82;86.16;100592.81;7397698;19;20022;-68
2021/12/25 03:46:15;;;;;;;2.65;1.60;;;;;;;-5.86;86.40;100593.50;7395650;19;20025;-68
2021/12/25 03:59:34;;;;;;;2.00;1.05;;;;;;;-5.99;86.93;100594.69;7396412;19;20426;-69
2021/12/25 04:02:07;;;;;;;1.90;1.27;;;;;;;-6.02;87.09;100601.34;7395302;19;20025;-68
2021/12/25 04:04:38;;;;;;;2.88;1.45;;;;;;;-6.07;87.09;100596.88;7395505;19;20022;-69
2021/12/25 04:07:12;;;;;;;1.27;1.17;;;;;;;-6.10;87.27;100603.56;7395468;19;20014;-69
2021/12/25 04:09:45;;;;;;;1.40;1.30;;;;;;;-6.14;87.15;100602.56;7395596;19;20082;-67
2021/12/25 04:12:16;;;;;;;2.85;1.35;;;;;;;-6.17;87.22;100606.66;7397074;19;20020;-68
2021/12/25 04:14:45;;;;;;;1.35;1.20;;;;;;;-6.22;87.02;100606.44;7396324;19;20019;-68
2021/12/25 04:17:13;;;;;;;2.25;1.63;;;;;;;-6.27;87.54;100613.03;7396611;19;20022;-69
2021/12/25 04:19:41;;;;;;;6.20;1.38;;;;;;;-6.28;87.65;100624.03;7394833;19;20030;-68
2021/12/25 04:22:15;;;;;;;2.08;1.50;;;;;;;-6.30;87.83;100620.56;7396051;19;20475;-69
2021/12/25 04:24:48;;;;;;;;;;;;;;;-6.31;87.48;100627.34;7396303;19;20483;-68
2021/12/25 04:27:17;;;;;;;1.60;1.15;;;;;;;-6.36;87.52;100617.75;7394382;19;19940;-69
2021/12/25 04:29:50;;;;;;;2.22;1.23;;;;;;;-6.36;87.69;100627.97;7396223;19;20011;-69
2021/12/25 05:02:05;;;;;;;1.83;1.40;;;;;;;-6.57;87.93;100637.25;7399385;19;20481;-72
2021/12/25 05:04:38;;;;;;;7.93;2.17;;;;;;;-6.60;87.99;100634.53;7395203;19;20436;-68
2021/12/25 05:07:10;;;;;;;3.10;1.55;;;;;;;-6.62;87.96;100635.28;7396292;19;20030;-70
2021/12/25 05:09:38;;;;;;;5.10;2.10;;;;;;;-6.63;88.25;100638.66;7396097;19;20027;-69
2021/12/25 05:12:13;;;;;;;6.90;2.28;;;;;;;-6.65;88.21;100638.56;7395160;19;20022;-69
2021/12/25 05:14:43;;;;;;;2.85;1.88;;;;;;;-6.65;88.53;100650.47;7393425;19;20023;-68
2021/12/25 05:17:13;;;;;;;2.92;1.70;;;;;;;-6.65;88.32;100659.00;7394414;19;20015;-69
2021/12/25 05:19:41;;;;;;;2.85;1.45;;;;;;;-6.64;88.45;100644.56;7394359;19;20094;-69
2021/12/25 05:22:14;;;;;;;3.85;1.67;;;;;;;-6.65;88.37;100653.88;7394794;19;20014;-68
2021/12/25 05:24:45;;;;;;;4.60;1.90;;;;;;;-6.65;88.43;100658.13;7392372;19;20550;-68
2021/12/25 05:27:16;;;;;;;3.58;1.63;;;;;;;-6.65;88.32;100665.78;7402308;19;20022;-68
2021/12/25 05:29:46;;;;;;;1.48;1.30;;;;;;;-6.65;88.40;100670.88;7399702;19;20015;-68
2021/12/25 05:32:16;;;;;;;3.30;1.83;;;;;;;-6.66;88.30;100675.13;7399596;19;20086;-68
2021/12/25 05:34:44;;;;;;;1.65;1.30;;;;;;;-6.67;88.39;100680.13;7398919;19;20044;-68
2021/12/25 05:37:13;;;;;;;2.25;1.55;;;;;;;-6.69;88.59;100669.88;7401615;19;20018;-69
2021/12/25 05:39:50;;;;;;;2.17;1.42;;;;;;;-6.74;88.55;100679.84;7398421;19;20014;-68
2021/12/25 05:42:28;;;;;;;1.65;1.48;;;;;;;-6.73;88.58;100688.41;7401979;19;20014;-69
2021/12/25 05:44:56;;;;;;;2.70;1.60;;;;;;;-6.74;88.46;100692.59;7400890;19;20018;-68
2021/12/25 05:47:24;;;;;;;9.43;1.65;;;;;;;-6.75;88.52;100688.31;7398846;19;20019;-68
2021/12/25 05:49:52;;;;;;;2.28;1.30;;;;;;;-6.77;88.61;100687.38;7401156;19;20018;-68
2021/12/25 05:52:20;;;;;;;1.33;1.20;;;;;;;-6.78;88.41;100690.72;7401381;19;20031;-69
2021/12/25 05:54:48;;;;;;;2.67;1.30;;;;;;;-6.80;88.47;100692.31;7400025;19;20369;-68
2021/12/25 05:57:17;;;;;;;3.25;1.30;;;;;;;-6.84;88.47;100690.41;7401151;19;20115;-68
2021/12/25 05:59:50;;;;;;;1.60;1.30;;;;;;;-6.87;88.61;100691.16;7399672;19;20023;-68
2021/12/25 06:02:18;;;;;;;1.73;1.63;;;;;;;-6.89;88.56;100699.53;7399070;19;20014;-68
2021/12/25 06:04:46;;;;;;;3.47;1.50;;;;;;;-6.92;88.69;100701.94;7398351;19;20018;-68
2021/12/25 06:07:14;;;;;;;3.83;1.80;;;;;;;-6.93;88.58;100702.75;7398354;19;20022;-68
2021/12/25 06:09:42;;;;;;;3.50;1.55;;;;;;;-6.97;88.52;100694.06;7400837;19;20031;-68
2021/12/25 06:12:14;;;;;;;1.67;1.40;;;;;;;-6.98;88.71;100696.56;7400441;19;20374;-68
2021/12/25 06:14:44;;;;;;;2.40;1.25;;;;;;;-6.98;88.65;100696.56;7399970;19;20495;-68
2021/12/25 06:17:17;;;;;;;2.03;1.50;;;;;;;-6.99;88.82;100700.75;7400433;19;20035;-68
2021/12/25 06:19:49;;;;;;;2.03;1.83;;;;;;;-6.99;88.90;100705.00;7398229;19;20014;-68
2021/12/25 06:22:17;;;;;;;5.07;1.95;;;;;;;-7.00;88.88;100708.34;7398003;19;20021;-69
2021/12/25 06:24:49;;;;;;;4.70;2.22;;;;;;;-7.00;88.80;100708.34;7399510;19;20020;-68
2021/12/25 06:27:18;;;;;;;5.32;2.20;;;;;;;-7.04;89.00;100704.75;7398247;19;20019;-68
2021/12/25 06:29:46;;;;;;;4.03;2.17;;;;;;;-7.05;88.85;100705.56;7400087;19;20014;-69
2021/12/25 06:32:18;;;;;;;3.90;2.13;;;;;;;-7.06;88.81;100716.59;7397596;19;20023;-69
2021/12/25 06:34:47;;;;;;;2.72;2.00;;;;;;;-7.08;88.95;100713.06;7397644;19;20022;-69
2021/12/25 06:37:18;;;;;;;4.75;2.00;;;;;;;-7.12;88.89;100714.59;7397317;19;20394;-69
2021/12/25 06:39:54;;;;;;;3.22;1.85;;;;;;;-7.13;88.91;100707.72;7397709;19;20013;-69
2021/12/25 06:42:28;;;;;;;3.67;1.70;;;;;;;-7.12;89.14;100721.38;7399900;19;20026;-69
2021/12/25 06:44:57;;;;;;;4.60;1.63;;;;;;;-7.12;89.12;100718.81;7398645;19;20022;-69
2021/12/25 06:47:27;;;;;;;3.55;1.70;;;;;;;-7.13;89.08;100733.22;7399660;19;20019;-69
2021/12/25 06:49:56;;;;;;;3.50;1.70;;;;;;;-7.13;89.14;100743.44;7396880;19;20385;-69
2021/12/25 06:52:24;;;;;;;4.53;2.53;;;;;;;-7.13;88.93;100751.09;7397016;19;20023;-68
2021/12/25 06:54:56;;;;;;;4.25;2.10;;;;;;;-7.12;88.98;100749.44;7398459;19;20019;-68
2021/12/25 06:57:24;;;;;;;2.97;1.95;;;;;;;-7.14;89.10;100746.81;7398933;19;20508;-68
2021/12/25 06:59:52;;;;;;;3.92;1.98;;;;;;;-7.14;89.21;100745.91;7396662;19;20015;-68
2021/12/25 07:02:20;;;;;;;2.88;2.20;;;;;;;-7.14;89.12;100744.25;7398625;19;20390;-69
2021/12/25 07:04:53;;;;;;;4.03;2.60;;;;;;;-7.16;88.99;100750.09;7398209;19;20026;-68
2021/12/25 07:07:23;;;;;;;3.45;2.30;;;;;;;-7.16;88.97;100752.63;7399252;19;20022;-68
2021/12/25 07:09:52;;;;;;;5.07;2.83;;;;;;;-7.19;89.02;100755.88;7398516;19;20483;-70
2021/12/25 07:12:24;;;;;;;3.33;3.03;;;;;;;-7.22;88.71;100750.63;7396144;19;20523;-69
2021/12/25 07:14:52;;;;;;;5.53;2.92;;;;;;;-7.24;88.97;100750.56;7397457;19;20027;-69
2021/12/25 07:17:20;;;;;;;4.40;3.60;;;;;;;-7.24;89.03;100754.78;7396792;19;20031;-69
2021/12/25 07:19:51;;;;;;;3.78;2.92;;;;;;;-7.25;89.22;100763.25;7396191;19;20018;-69
2021/12/25 07:22:19;;;;;;;44.85;15.80;;;;;;;-7.25;89.04;100763.25;7398778;19;20030;-69
2021/12/25 07:24:49;;;;;;;9.63;4.40;;;;;;;-7.24;89.26;100764.97;7395527;19;20390;-69
2021/12/25 07:27:17;;;;;;;3.83;2.95;;;;;;;-7.23;89.32;100769.28;7398125;19;20036;-69
2021/12/25 07:29:45;;;;;;;8.25;4.47;;;;;;;-7.23;89.14;100776.94;7397943;19;20023;-69
2021/12/25 07:32:13;;;;;;;7.63;5.10;;;;;;;-7.29;89.25;100774.06;7397909;19;20026;-69
2021/12/25 07:34:45;;;;;;;8.60;5.65;;;;;;;-7.26;89.25;100776.78;7397204;19;20110;-67
2021/12/25 07:37:17;;;;;;;7.80;4.68;;;;;;;-7.26;89.34;100784.44;7398546;19;20021;-69
2021/12/25 07:39:46;;;;;;;6.63;4.20;;;;;;;-7.28;89.20;100784.34;7397196;19;20017;-68
2021/12/25 07:42:15;;;;;;;6.82;3.75;;;;;;;-7.27;89.17;100780.13;7396988;19;20024;-69
2021/12/25 07:44:52;;;;;;;5.85;3.97;;;;;;;-7.29;89.36;100780.06;7396108;19;20475;-69
2021/12/25 07:47:22;;;;;;;6.75;3.78;;;;;;;-7.30;89.31;100778.28;7397843;19;20018;-69
2021/12/25 07:49:50;;;;;;;7.65;4.25;;;;;;;-7.29;89.22;100779.16;7396542;19;20018;-68
2021/12/25 07:52:21;;;;;;;9.10;3.72;;;;;;;-7.30;89.37;100777.41;7397311;19;20023;-69
2021/12/25 07:54:49;;;;;;;6.47;3.55;;;;;;;-7.29;89.53;100776.59;7397464;19;20031;-68
2021/12/25 07:57:20;;;;;;;7.45;3.97;;;;;;;-7.30;89.57;100774.84;7397317;19;20024;-69
2021/12/25 07:59:48;;;;;;;4.30;2.83;;;;;;;-7.31;89.48;100778.22;7396696;19;20014;-68
2021/12/25 08:02:16;;;;;;;8.48;3.88;;;;;;;-7.31;89.25;100784.19;7397061;19;20040;-68
2021/12/25 08:04:45;;;;;;;7.05;4.38;;;;;;;-7.29;89.68;100794.44;7396332;19;20022;-70
2021/12/25 08:07:13;;;;;;;6.10;4.53;;;;;;;-7.29;89.44;100803.00;7396852;19;20011;-69
2021/12/25 08:09:44;;;;;;;10.13;4.80;;;;;;;-7.29;89.53;100805.56;7396648;19;20039;-68
2021/12/25 08:12:12;;;;;;;7.13;4.65;;;;;;;-7.27;89.78;100803.06;7395564;19;20014;-69
2021/12/25 08:14:41;;;;;;;10.23;5.70;;;;;;;-7.26;89.69;100800.59;7395926;19;20014;-69
2021/12/25 08:17:11;;;;;;;11.77;6.00;;;;;;;-7.24;89.64;100810.88;7396416;19;20026;-68
2021/12/25 08:19:40;;;;;;;14.30;5.88;;;;;;;-7.26;90.00;100804.81;7396450;19;20015;-69
2021/12/25 08:22:08;;;;;;;11.98;6.72;;;;;;;-7.21;89.85;100811.91;7396226;19;20018;-68
2021/12/25 08:24:39;;;;;;;14.77;5.57;;;;;;;-7.14;89.94;100817.31;7395744;19;20031;-69
2021/12/25 08:27:12;;;;;;;9.45;4.80;;;;;;;-7.12;89.83;100816.59;7394476;19;20035;-70
2021/12/25 08:29:40;;;;;;;9.05;4.03;;;;;;;-7.11;89.88;100818.34;7396425;19;20097;-68
2021/12/25 08:32:10;;;;;;;5.05;3.60;;;;;;;-7.10;89.59;100822.66;7396065;19;20479;-70
2021/12/25 08:34:40;;;;;;;6.30;4.40;;;;;;;-7.10;89.59;100819.22;7395392;19;20031;-68
2021/12/25 08:37:10;;;;;;;4.97;3.28;;;;;;;-7.09;89.55;100813.31;7395879;19;20040;-70
2021/12/25 08:39:38;;;;;;;3.80;3.10;;;;;;;-7.08;89.71;100818.50;7393214;19;20374;-69
2021/12/25 08:42:10;;;;;;;4.72;2.80;;;;;;;-7.06;89.68;100816.91;7395705;19;20022;-68
2021/12/25 08:44:52;;;;;;;7.72;2.80;;;;;;;-7.04;89.69;100815.31;7393988;19;20040;-69
2021/12/25 08:47:21;;;;;;;5.22;3.78;;;;;;;-7.01;89.67;100817.16;7396752;19;20018;-70
2021/12/25 08:49:50;;;;;;;6.97;3.53;;;;;;;-6.98;89.54;100821.53;7395494;19;20026;-69
2021/12/25 08:52:21;;;;;;;4.38;3.25;;;;;;;-6.96;89.37;100825.00;7395031;19;20502;-67
2021/12/25 08:54:50;;;;;;;5.13;3.33;;;;;;;-6.93;89.47;100827.75;7395197;19;20028;-70
2021/12/25 08:57:25;;;;;;;9.15;7.03;;;;;;;-6.92;89.39;100832.03;7394170;19;20015;-69
2021/12/25 08:59:55;;;;;;;12.57;7.90;;;;;;;-6.88;89.89;100831.41;7393644;19;20361;-70
2021/12/25 09:02:24;;;;;;;16.40;8.55;;;;;;;-6.83;90.07;100836.75;7394932;19;20533;-69
2021/12/25 09:04:55;;;;;;;15.98;6.15;;;;;;;-6.78;89.65;100828.50;7394219;19;20015;-69
2021/12/25 09:07:24;;;;;;;8.52;5.40;;;;;;;-6.77;89.92;100816.63;7395406;19;20032;-69
2021/12/25 09:09:54;;;;;;;8.48;4.95;;;;;;;-6.70;89.81;100821.22;7392712;19;20385;-69
2021/12/25 09:12:28;;;;;;;12.48;4.72;;;;;;;-6.65;89.88;100818.91;7394891;19;20511;-69
2021/12/25 09:14:56;;;;;;;9.55;5.18;;;;;;;-6.61;89.83;100825.91;7393039;19;20029;-68
2021/12/25 09:17:26;;;;;;;7.78;4.78;;;;;;;-6.55;89.93;100821.97;7394611;19;20018;-68
2021/12/25 09:19:54;;;;;;;7.03;4.72;;;;;;;-6.50;89.84;100824.75;7394077;19;20018;-69
2021/12/25 09:22:22;;;;;;;7.25;4.57;;;;;;;-6.47;89.93;100824.91;7392209;19;20031;-69
2021/12/25 09:24:51;;;;;;;8.68;5.10;;;;;;;-6.43;89.65;100824.25;7393719;19;20022;-69
2021/12/25 09:27:19;;;;;;;6.85;4.55;;;;;;;-6.40;89.75;100832.03;7394569;19;20361;-69
2021/12/25 09:29:50;;;;;;;8.80;4.60;;;;;;;-6.35;89.91;100833.97;7395196;19;20138;-69
2021/12/25 09:32:23;;;;;;;9.82;4.43;;;;;;;-6.32;89.91;100839.22;7394812;19;20026;-69
2021/12/25 09:34:51;;;;;;;9.15;4.38;;;;;;;-6.29;89.51;100844.44;7393713;19;20021;-69
2021/12/25 09:37:22;;;;;;;5.15;3.30;;;;;;;-6.25;89.40;100854.91;7391870;19;20018;-69
2021/12/25 09:39:50;;;;;;;6.22;3.75;;;;;;;-6.20;89.51;100861.91;7391492;19;20014;-67
2021/12/25 09:42:19;;;;;;;5.72;3.50;;;;;;;-6.16;89.25;100861.25;7393860;19;20032;-70
2021/12/25 09:44:54;;;;;;;7.45;3.25;;;;;;;-6.11;89.57;100860.66;7393358;19;20086;-68
2021/12/25 09:47:23;;;;;;;4.70;3.47;;;;;;;-6.07;89.45;100856.59;7394229;19;20019;-69
2021/12/25 09:49:52;;;;;;;5.90;3.53;;;;;;;-6.01;89.16;100861.13;7391600;19;20015;-70
2021/12/25 09:52:20;;;;;;;6.43;3.63;;;;;;;-6.00;89.38;100852.63;7394028;19;20010;-67
2021/12/25 09:54:49;;;;;;;5.38;3.22;;;;;;;-5.93;88.94;100863.16;7393217;19;20032;-69
2021/12/25 09:57:17;;;;;;;5.20;3.38;;;;;;;-5.86;89.20;100866.03;7391331;19;20432;-70
2021/12/25 09:59:46;;;;;;;7.05;3.45;;;;;;;-5.87;89.13;100846.41;7393679;19;20043;-69
2021/12/25 10:02:18;;;;;;;4.57;3.00;;;;;;;-5.78;88.86;100860.47;7391767;19;20018;-69
2021/12/25 10:04:49;;;;;;;6.35;3.17;;;;;;;-5.74;88.89;100872.59;7392185;19;20035;-71
2021/12/25 10:07:25;;;;;;;6.40;3.58;;;;;;;-5.70;88.85;100871.03;7391456;19;20032;-69
2021/12/25 10:10:04;;;;;;;12.32;6.15;;;;;;;-5.64;88.02;100868.75;7393762;19;20026;-69
2021/12/25 10:12:39;;;;;;;4.25;2.97;;;;;;;-5.59;88.35;100863.88;7397842;19;20511;-69
2021/12/25 10:15:09;;;;;;;5.80;2.50;;;;;;;-5.54;88.38;100866.66;7399588;19;20019;-68
2021/12/25 10:17:48;;;;;;;6.82;2.42;;;;;;;-5.49;88.31;100866.03;7400507;19;20020;-68
2021/12/25 10:20:18;;;;;;;5.18;3.05;;;;;;;-5.43;87.41;100865.47;7399639;19;20017;-68
2021/12/25 10:22:58;;;;;;;8.27;4.07;;;;;;;-5.38;87.12;100869.09;7400360;19;20375;-68
2021/12/25 10:25:32;;;;;;;6.78;3.28;;;;;;;-5.34;87.38;100877.78;7399913;19;20122;-69
2021/12/25 10:28:04;;;;;;;4.32;3.08;;;;;;;-5.30;87.81;100866.88;7398727;19;20045;-70
2021/12/25 10:30:33;;;;;;;3.67;2.30;;;;;;;-5.26;87.86;100869.66;7400703;19;20019;-70
2021/12/25 10:33:03;;;;;;;8.13;3.47;;;;;;;-5.21;87.66;100867.28;7399335;19;20523;-70
2021/12/25 10:35:31;;;;;;;5.10;2.42;;;;;;;-5.17;87.53;100871.72;7398542;19;20018;-70
2021/12/25 10:38:00;;;;;;;4.20;2.38;;;;;;;-5.12;87.69;100874.47;7399449;19;20468;-70
2021/12/25 10:40:36;;;;;;;4.57;2.40;;;;;;;-5.10;87.24;100867.75;7397312;19;20010;-69
2021/12/25 10:43:07;;;;;;;6.38;2.88;;;;;;;-5.08;87.32;100869.56;7399823;19;20015;-68
2021/12/25 10:45:36;;;;;;;4.13;2.22;;;;;;;-5.05;86.98;100870.50;7397882;19;20015;-69
2021/12/25 10:48:10;;;;;;;4.05;2.90;;;;;;;-5.02;87.15;100862.97;7399241;19;20106;-69
2021/12/25 10:50:39;;;;;;;;;;;;;;;-5.01;86.25;100859.59;7400300;19;20014;-69
2021/12/25 10:53:26;;;;;;;4.10;1.92;;;;;;;-4.99;86.43;100868.22;7398840;19;19922;-69
2021/12/25 10:55:56;;;;;;;4.30;2.05;;;;;;;-4.98;86.88;100864.84;7397179;19;20017;-69
2021/12/25 10:58:26;;;;;;;2.80;1.58;;;;;;;-4.99;86.68;100853.75;7398958;19;20028;-69
2021/12/25 11:00:59;;;;;;;3.20;1.80;;;;;;;-4.96;87.09;100853.88;7397277;19;20039;-69
2021/12/25 11:03:32;;;;;;;4.82;2.15;;;;;;;-4.96;86.89;100855.56;7399823;19;20370;-69
2021/12/25 11:06:07;;;;;;;3.10;2.30;;;;;;;-4.95;86.77;100853.06;7396983;19;20036;-69
2021/12/25 11:08:36;;;;;;;4.38;2.60;;;;;;;-4.93;86.64;100858.25;7396847;19;20019;-69
2021/12/25 11:11:11;;;;;;;3.42;1.90;;;;;;;-4.93;86.68;100853.13;7398396;19;20381;-68
2021/12/25 11:13:43;;;;;;;6.40;1.98;;;;;;;-4.92;86.50;100852.31;7398794;19;20018;-68
2021/12/25 11:16:27;;;;;;;4.20;2.85;;;;;;;-4.91;86.55;100843.84;7396688;19;20023;-69
2021/12/25 11:19:05;;;;;;;3.77;2.70;;;;;;;-4.90;86.35;100845.59;7399007;19;20052;-69
2021/12/25 11:21:37;;;;;;;4.13;2.78;;;;;;;-4.92;85.93;100850.63;7396516;19;20516;-69
2021/12/25 11:24:10;;;;;;;3.40;2.30;;;;;;;-4.90;86.30;100855.84;7396769;19;20015;-68
2021/12/25 11:26:40;;;;;;;5.63;2.92;;;;;;;-4.89;86.39;100856.69;7398159;19;20021;-68
2021/12/25 11:29:12;;;;;;;7.60;3.05;;;;;;;-4.91;85.77;100854.06;7398193;19;20370;-68
2021/12/25 11:31:41;;;;;;;4.57;2.70;;;;;;;-4.89;85.81;100857.59;7397911;19;20505;-69
2021/12/25 11:34:12;;;;;;;5.50;2.40;;;;;;;-4.89;85.48;100852.47;7397733;19;20027;-70
2021/12/25 11:36:41;;;;;;;4.88;2.00;;;;;;;-4.88;85.83;100855.88;7396108;19;20019;-71
2021/12/25 11:39:10;;;;;;;5.30;2.20;;;;;;;-4.87;85.67;100855.94;7395399;19;20014;-68
2021/12/25 11:41:39;;;;;;;3.08;2.28;;;;;;;-4.84;85.61;100843.28;7396542;19;20010;-68
2021/12/25 11:44:28;;;;;;;3.08;2.20;;;;;;;-4.82;85.73;100838.22;7395620;19;20018;-70
2021/12/25 11:46:59;;;;;;;4.20;2.17;;;;;;;-4.81;83.63;100835.72;7395211;19;20529;-69
2021/12/25 11:49:27;;;;;;;3.58;1.63;;;;;;;-4.79;84.80;100833.22;7397039;19;20500;-68
2021/12/25 11:51:55;;;;;;;8.25;2.30;;;;;;;-4.78;84.26;100843.56;7395434;19;20014;-68
2021/12/25 11:55:09;;;;;;;4.15;2.20;;;;;;;-4.77;84.68;100842.72;7396934;19;20010;-68
2021/12/25 11:57:57;;;;;;;2.90;1.85;;;;;;;-4.71;84.95;100839.56;7396556;19;20487;-70
2021/12/25 12:00:43;;;;;;;3.13;1.90;;;;;;;-4.75;84.77;100822.34;7395496;19;20019;-69
2021/12/25 12:03:44;;;;;;;13.48;5.68;;;;;;;-4.64;85.02;100833.00;7397138;19;20027;-68
2021/12/25 12:06:13;;;;;;;4.38;2.10;;;;;;;-4.62;84.43;100849.31;7395092;19;20018;-68
2021/12/25 12:09:07;;;;;;;3.92;2.00;;;;;;;-4.60;84.00;100840.00;7396662;19;20019;-68
2021/12/25 12:11:40;;;;;;;2.90;1.60;;;;;;;-4.58;84.55;100834.13;7399212;19;20033;-68
2021/12/25 12:14:17;;;;;;;2.50;1.85;;;;;;;-4.56;84.42;100831.66;7396448;19;20014;-68
2021/12/25 12:16:51;;;;;;;3.20;1.95;;;;;;;-4.54;84.33;100834.25;7396594;19;20025;-67
2021/12/25 12:19:36;;;;;;;;;;;;;;;-4.52;82.92;100840.34;7396764;19;20014;-69
2021/12/25 12:22:59;;;;;;;3.58;1.90;;;;;;;-4.51;83.19;100845.50;7394351;19;19923;-70
2021/12/25 12:28:52;;;;;;;2.95;2.17;;;;;;;-4.50;81.87;100841.25;7392758;19;20019;-69
2021/12/25 12:31:37;;;;;;;3.73;1.90;;;;;;;-4.47;83.46;100829.44;7396350;19;20022;-69
2021/12/25 12:34:40;;;;;;;4.18;2.00;;;;;;;-4.44;84.17;100831.25;7395101;19;20465;-69
2021/12/25 12:37:34;;;;;;;7.05;3.05;;;;;;;-4.40;83.91;100838.25;7395328;19;20086;-69
2021/12/25 12:40:26;;;;;;;7.28;3.17;;;;;;;-4.37;83.38;100852.88;7393898;19;20036;-69
2021/12/25 12:43:01;;;;;;;4.00;2.58;;;;;;;-4.35;84.00;100847.00;7394459;19;20021;-69
2021/12/25 12:45:33;;;;;;;6.95;3.38;;;;;;;-4.31;84.18;100848.00;7393907;19;20025;-69